Time,TemperatureF,DewpointF,PressureIn,WindDirection,WindDirectionDegrees,WindSpeedMPH,WindSpeedGustMPH,Humidity,HourlyPrecipIn,Conditions,Clouds,dailyrainin,SoftwareType,DateUTC
2013-09-26 00:01:00,47.4,46.3,30.03,SSW,194,0.0,0.0,96,0.00,,CLR,0.00,VWS V14.01,2013-09-26 04:01:00,
2013-09-26 00:02:00,47.3,46.2,30.03,SSW,194,0.0,0.0,96,0.00,,CLR,0.00,VWS V14.01,2013-09-26 04:02:00,
2013-09-26 00:07:00,47.2,45.8,30.03,SSW,194,0.0,0.0,95,0.00,,CLR,0.00,VWS V14.01,2013-09-26 04:07:00,
2013-09-26 00:12:00,47.0,45.9,30.03,SSW,194,0.0,0.0,96,0.00,,CLR,0.00,VWS V14.01,2013-09-26 04:12:00,
2013-09-26 00:17:00,46.9,45.8,30.03,SSW,194,0.0,0.0,96,0.00,,CLR,0.00,VWS V14.01,2013-09-26 04:17:00,
2013-09-26 00:22:00,46.8,45.7,30.03,SSW,194,0.0,0.0,96,0.00,,CLR,0.00,VWS V14.01,2013-09-26 04:22:00,
2013-09-26 00:27:00,46.7,45.6,30.03,SSW,194,0.0,0.0,96,0.00,,CLR,0.00,VWS V14.01,2013-09-26 04:27:00,
2013-09-26 00:32:00,46.5,45.4,30.03,SSW,194,0.0,0.0,96,0.00,,CLR,0.00,VWS V14.01,2013-09-26 04:32:00,
2013-09-26 00:37:00,46.4,45.3,30.03,SSW,194,0.0,0.0,96,0.00,,CLR,0.00,VWS V14.01,2013-09-26 04:37:00,
2013-09-26 00:42:00,46.3,45.2,30.03,SSW,194,0.0,0.0,96,0.00,,CLR,0.00,VWS V14.01,2013-09-26 04:42:00,
2013-09-26 00:47:00,46.3,45.2,30.03,SSW,194,0.0,0.0,96,0.00,,CLR,0.00,VWS V14.01,2013-09-26 04:47:00,
2013-09-26 00:52:00,46.2,45.1,30.03,SSW,194,0.0,0.0,96,0.00,,CLR,0.00,VWS V14.01,2013-09-26 04:52:00,
2013-09-26 00:57:00,46.2,45.1,30.03,SSW,194,0.0,0.0,96,0.00,,CLR,0.00,VWS V14.01,2013-09-26 04:57:00,
2013-09-26 01:02:00,46.2,45.1,30.03,SSW,194,0.0,0.0,96,0.00,,CLR,0.00,VWS V14.01,2013-09-26 05:02:00,
2013-09-26 01:07:00,46.1,45.0,30.03,SSW,194,0.0,0.0,96,0.00,,CLR,0.00,VWS V14.01,2013-09-26 05:07:00,
2013-09-26 01:12:00,46.0,44.9,30.03,SSW,194,0.0,0.0,96,0.00,,CLR,0.00,VWS V14.01,2013-09-26 05:12:00,
2013-09-26 01:17:00,45.8,45.0,30.03,SSW,194,0.0,0.0,97,0.00,,CLR,0.00,VWS V14.01,2013-09-26 05:17:00,
2013-09-26 01:22:00,45.6,44.5,30.03,SSW,194,0.0,0.0,96,0.00,,CLR,0.00,VWS V14.01,2013-09-26 05:22:00,
2013-09-26 01:27:00,45.5,44.4,30.03,SSW,194,0.0,0.0,96,0.00,,CLR,0.00,VWS V14.01,2013-09-26 05:27:00,
2013-09-26 01:32:00,45.3,44.2,30.03,SSW,194,0.0,0.0,96,0.00,,CLR,0.00,VWS V14.01,2013-09-26 05:32:00,
2013-09-26 01:37:00,45.2,44.1,30.03,SSW,194,0.0,0.0,96,0.00,,CLR,0.00,VWS V14.01,2013-09-26 05:37:00,
2013-09-26 01:42:00,45.1,44.0,30.03,SSW,194,0.0,0.0,96,0.00,,CLR,0.00,VWS V14.01,2013-09-26 05:42:00,
2013-09-26 01:47:00,44.9,43.8,30.03,SSW,194,0.0,0.0,96,0.00,,CLR,0.00,VWS V14.01,2013-09-26 05:47:00,
2013-09-26 01:52:00,44.7,43.6,30.03,SSW,194,0.0,0.0,96,0.00,,CLR,0.00,VWS V14.01,2013-09-26 05:52:00,
2013-09-26 01:57:00,44.8,44.0,30.03,SSW,194,0.0,0.0,97,0.00,,CLR,0.00,VWS V14.01,2013-09-26 05:57:00,
2013-09-26 02:02:00,44.8,44.0,30.03,SSW,194,0.0,0.0,97,0.00,,CLR,0.00,VWS V14.01,2013-09-26 06:02:00,
2013-09-26 02:07:00,45.0,44.2,30.03,SSW,194,0.0,0.0,97,0.00,,CLR,0.00,VWS V14.01,2013-09-26 06:07:00,
2013-09-26 02:12:00,45.0,44.2,30.03,SSW,194,0.0,0.0,97,0.00,,CLR,0.00,VWS V14.01,2013-09-26 06:12:00,
2013-09-26 02:17:00,45.1,44.3,30.03,SSW,194,0.0,0.0,97,0.00,,CLR,0.00,VWS V14.01,2013-09-26 06:17:00,
2013-09-26 02:22:00,45.2,44.7,30.03,SSW,194,0.0,0.0,98,0.00,,CLR,0.00,VWS V14.01,2013-09-26 06:22:00,
2013-09-26 02:27:00,45.3,44.8,30.03,SSW,194,0.0,0.0,98,0.00,,CLR,0.00,VWS V14.01,2013-09-26 06:27:00,
2013-09-26 02:32:00,45.3,44.8,30.03,SSW,194,0.0,0.0,98,0.00,,CLR,0.00,VWS V14.01,2013-09-26 06:32:00,
2013-09-26 02:37:00,45.5,45.0,30.03,SSW,194,0.0,0.0,98,0.00,,CLR,0.00,VWS V14.01,2013-09-26 06:37:00,
2013-09-26 02:42:00,45.7,45.2,30.03,SSW,194,0.0,0.0,98,0.00,,CLR,0.00,VWS V14.01,2013-09-26 06:42:00,
2013-09-26 02:47:00,45.8,45.3,30.03,SSW,194,0.0,0.0,98,0.00,,CLR,0.00,VWS V14.01,2013-09-26 06:47:00,
2013-09-26 02:52:00,46.0,45.5,30.03,SSW,194,0.0,0.0,98,0.00,,CLR,0.00,VWS V14.01,2013-09-26 06:52:00,
2013-09-26 02:57:00,46.0,45.5,30.03,SSW,194,0.0,0.0,98,0.00,,CLR,0.00,VWS V14.01,2013-09-26 06:57:00,
2013-09-26 03:02:00,46.0,45.5,30.03,SSW,194,0.0,0.0,98,0.00,,CLR,0.00,VWS V14.01,2013-09-26 07:02:00,
2013-09-26 03:07:00,46.0,45.5,30.03,SSW,194,0.0,0.0,98,0.00,,CLR,0.00,VWS V14.01,2013-09-26 07:07:00,
2013-09-26 03:12:00,45.9,45.4,30.03,SSW,194,0.0,0.0,98,0.00,,CLR,0.00,VWS V14.01,2013-09-26 07:12:00,
2013-09-26 03:17:00,45.9,45.4,30.03,SSW,194,0.0,0.0,98,0.00,,CLR,0.00,VWS V14.01,2013-09-26 07:17:00,
2013-09-26 03:22:00,45.8,45.3,30.03,SSW,194,0.0,0.0,98,0.00,,CLR,0.00,VWS V14.01,2013-09-26 07:22:00,
2013-09-26 03:27:00,45.7,45.2,30.03,SSW,194,0.0,0.0,98,0.00,,CLR,0.00,VWS V14.01,2013-09-26 07:27:00,
2013-09-26 03:32:00,45.5,45.0,30.03,SSW,194,0.0,0.0,98,0.00,,SCT002,0.00,VWS V14.01,2013-09-26 07:32:00,
2013-09-26 03:37:00,45.4,44.9,30.03,SSW,194,0.0,0.0,98,0.00,,SCT002,0.08,VWS V14.01,2013-09-26 07:37:00,
2013-09-26 03:42:00,45.4,44.9,30.04,SSW,194,0.0,0.0,98,0.00,,SCT002,0.00,VWS V14.01,2013-09-26 07:42:00,
2013-09-26 03:47:00,45.6,45.1,30.04,SSW,194,0.0,0.0,98,0.00,,SCT002,0.00,VWS V14.01,2013-09-26 07:47:00,
2013-09-26 03:52:00,45.7,45.2,30.04,SSW,194,0.0,0.0,98,0.00,,SCT002,0.00,VWS V14.01,2013-09-26 07:52:00,
2013-09-26 03:57:00,45.8,45.3,30.04,SSW,194,0.0,0.0,98,0.00,,SCT002,0.00,VWS V14.01,2013-09-26 07:57:00,
2013-09-26 04:02:00,46.0,45.5,30.04,SSW,194,0.0,0.0,98,0.00,,OVC002,0.00,VWS V14.01,2013-09-26 08:02:00,
2013-09-26 04:07:00,46.2,45.7,30.04,SSW,194,0.0,0.0,98,0.00,,OVC002,0.00,VWS V14.01,2013-09-26 08:07:00,
2013-09-26 04:12:00,46.4,46.1,30.04,SSW,194,0.0,0.0,99,0.00,,OVC002,0.00,VWS V14.01,2013-09-26 08:12:00,
2013-09-26 04:17:00,46.6,46.3,30.04,SSW,194,1.0,2.0,99,0.00,,OVC002,0.00,VWS V14.01,2013-09-26 08:17:00,
2013-09-26 04:22:00,46.9,46.6,30.04,SSW,194,0.0,2.0,99,0.00,,OVC002,0.00,VWS V14.01,2013-09-26 08:22:00,
2013-09-26 04:27:00,47.1,46.8,30.04,SSW,194,0.0,2.0,99,0.00,,OVC002,0.00,VWS V14.01,2013-09-26 08:27:00,
2013-09-26 04:33:00,47.2,46.9,30.04,SSW,194,0.0,0.0,99,0.00,,OVC002,0.00,VWS V14.01,2013-09-26 08:33:00,
2013-09-26 04:38:00,47.2,46.9,30.04,SSW,194,1.0,3.0,99,0.00,,OVC002,0.00,VWS V14.01,2013-09-26 08:38:00,
2013-09-26 04:43:00,47.2,46.7,30.04,SSW,194,0.0,3.0,98,0.00,,OVC002,0.00,VWS V14.01,2013-09-26 08:43:00,
2013-09-26 04:48:00,47.1,46.8,30.04,SSW,194,0.0,3.0,99,0.00,,OVC002,0.00,VWS V14.01,2013-09-26 08:48:00,
2013-09-26 04:53:00,47.1,46.8,30.05,SSW,194,0.0,3.0,99,0.00,,OVC002,0.00,VWS V14.01,2013-09-26 08:53:00,
2013-09-26 04:58:00,47.1,46.8,30.05,SSW,194,0.0,3.0,99,0.00,,OVC002,0.00,VWS V14.01,2013-09-26 08:58:00,
2013-09-26 05:03:00,47.0,46.7,30.05,SSW,194,1.0,3.0,99,0.00,,OVC002,0.00,VWS V14.01,2013-09-26 09:03:00,
2013-09-26 05:08:00,46.9,46.6,30.05,SSW,194,3.0,3.0,99,0.00,,OVC002,0.00,VWS V14.01,2013-09-26 09:08:00,
2013-09-26 05:13:00,46.8,46.5,30.05,SSW,194,0.0,3.0,99,0.00,,OVC002,0.00,VWS V14.01,2013-09-26 09:13:00,
2013-09-26 05:18:00,46.8,46.5,30.05,SSW,194,0.0,3.0,99,0.00,,OVC002,0.00,VWS V14.01,2013-09-26 09:18:00,
2013-09-26 05:23:00,46.7,46.2,30.05,SSW,194,0.0,3.0,98,0.00,,OVC002,0.00,VWS V14.01,2013-09-26 09:23:00,
2013-09-26 05:28:00,46.6,46.3,30.05,SSW,194,2.0,3.0,99,0.00,,OVC002,0.00,VWS V14.01,2013-09-26 09:28:00,
2013-09-26 05:33:00,46.5,46.2,30.05,SSW,194,0.0,0.0,99,0.00,,BKN002,0.00,VWS V14.01,2013-09-26 09:33:00,
2013-09-26 05:38:00,46.4,46.1,30.05,SSW,194,0.0,1.0,99,0.00,,BKN002,0.00,VWS V14.01,2013-09-26 09:38:00,
2013-09-26 05:43:00,46.3,46.0,30.05,SSW,194,0.0,1.0,99,0.00,,BKN002,0.00,VWS V14.01,2013-09-26 09:43:00,
2013-09-26 05:48:00,46.2,45.9,30.05,SSW,194,2.0,2.0,99,0.00,,BKN002,0.00,VWS V14.01,2013-09-26 09:48:00,
2013-09-26 05:53:00,46.1,45.8,30.05,SSW,194,0.0,2.0,99,0.00,,BKN002,0.00,VWS V14.01,2013-09-26 09:53:00,
2013-09-26 05:58:00,46.0,45.7,30.06,SSW,194,1.0,2.0,99,0.00,,BKN002,0.00,VWS V14.01,2013-09-26 09:58:00,
2013-09-26 06:03:00,45.9,45.6,30.06,SSW,194,0.0,1.0,99,0.00,,FEW002,0.00,VWS V14.01,2013-09-26 10:03:00,
2013-09-26 06:08:00,45.9,45.6,30.06,SSW,194,2.0,2.0,99,0.00,,FEW002,0.00,VWS V14.01,2013-09-26 10:08:00,
2013-09-26 06:13:00,45.9,45.6,30.06,SSW,194,1.0,2.0,99,0.00,,FEW002,0.00,VWS V14.01,2013-09-26 10:13:00,
2013-09-26 06:18:00,45.8,45.5,30.06,SSW,194,1.0,3.0,99,0.00,,FEW002,0.00,VWS V14.01,2013-09-26 10:18:00,
2013-09-26 06:23:00,45.8,45.5,30.06,South,191,0.0,3.0,99,0.00,,FEW002,0.00,VWS V14.01,2013-09-26 10:23:00,
2013-09-26 06:28:00,45.7,45.4,30.06,South,191,2.0,3.0,99,0.00,,FEW002,0.00,VWS V14.01,2013-09-26 10:28:00,
2013-09-26 06:33:00,45.6,45.3,30.06,South,191,1.0,2.0,99,0.00,,FEW002,0.00,VWS V14.01,2013-09-26 10:33:00,
2013-09-26 06:38:00,45.5,45.2,30.06,South,191,0.0,2.0,99,0.00,,FEW002,0.00,VWS V14.01,2013-09-26 10:38:00,
2013-09-26 06:43:00,45.5,45.2,30.07,South,191,0.0,2.0,99,0.00,,FEW002,0.00,VWS V14.01,2013-09-26 10:43:00,
2013-09-26 06:48:00,45.4,45.1,30.07,South,191,0.0,2.0,99,0.00,,FEW002,0.00,VWS V14.01,2013-09-26 10:48:00,
2013-09-26 06:53:00,45.3,45.0,30.07,South,191,0.0,2.0,99,0.00,,FEW002,0.00,VWS V14.01,2013-09-26 10:53:00,
2013-09-26 06:58:00,45.2,44.9,30.07,South,191,0.0,2.0,99,0.00,,FEW002,0.00,VWS V14.01,2013-09-26 10:58:00,
2013-09-26 07:03:00,45.2,44.9,30.07,South,191,0.0,0.0,99,0.00,,CLR,0.00,VWS V14.01,2013-09-26 11:03:00,
2013-09-26 07:08:00,45.2,44.9,30.08,South,191,0.0,1.0,99,0.00,,CLR,0.00,VWS V14.01,2013-09-26 11:08:00,
2013-09-26 07:13:00,45.2,44.9,30.08,South,191,1.0,2.0,99,0.00,,CLR,0.00,VWS V14.01,2013-09-26 11:13:00,
2013-09-26 07:18:00,45.2,45.2,30.08,South,191,0.0,2.0,100,0.00,,CLR,0.00,VWS V14.01,2013-09-26 11:18:00,
2013-09-26 07:23:00,45.2,45.2,30.08,South,191,0.0,2.0,100,0.00,,CLR,0.00,VWS V14.01,2013-09-26 11:23:00,
2013-09-26 07:28:00,45.2,45.2,30.08,South,191,0.0,2.0,100,0.00,,CLR,0.00,VWS V14.01,2013-09-26 11:28:00,
2013-09-26 07:33:00,45.2,44.9,30.08,South,191,0.0,0.0,99,0.00,,SCT001,0.00,VWS V14.01,2013-09-26 11:33:00,
2013-09-26 07:38:00,45.3,45.0,30.09,South,191,0.0,0.0,99,0.00,,SCT001,0.00,VWS V14.01,2013-09-26 11:38:00,
2013-09-26 07:43:00,45.3,45.3,30.09,South,191,0.0,0.0,100,0.00,,SCT001,0.00,VWS V14.01,2013-09-26 11:43:00,
2013-09-26 07:48:00,45.3,45.0,30.09,South,191,0.0,0.0,99,0.00,,SCT001,0.00,VWS V14.01,2013-09-26 11:48:00,
2013-09-26 07:53:00,45.4,45.4,30.09,South,191,1.0,2.0,100,0.00,,SCT001,0.00,VWS V14.01,2013-09-26 11:53:00,
2013-09-26 07:58:00,45.4,45.4,30.09,South,191,0.0,2.0,100,0.00,,SCT001,0.00,VWS V14.01,2013-09-26 11:58:00,
2013-09-26 08:03:00,45.5,45.5,30.09,South,191,0.0,0.0,100,0.00,,FEW001,0.00,VWS V14.01,2013-09-26 12:03:00,
2013-09-26 08:08:00,45.6,45.6,30.09,South,191,0.0,0.0,100,0.00,,FEW001,0.00,VWS V14.01,2013-09-26 12:08:00,
2013-09-26 08:13:00,45.7,45.7,30.09,South,191,0.0,1.0,100,0.00,,FEW001,0.00,VWS V14.01,2013-09-26 12:13:00,
2013-09-26 08:18:00,45.9,45.9,30.09,South,191,0.0,1.0,100,0.00,,FEW001,0.00,VWS V14.01,2013-09-26 12:18:00,
2013-09-26 08:23:00,46.0,46.0,30.09,South,191,0.0,1.0,100,0.00,,FEW001,0.00,VWS V14.01,2013-09-26 12:23:00,
2013-09-26 08:28:00,46.2,46.2,30.10,South,191,0.0,1.0,100,0.00,,FEW001,0.00,VWS V14.01,2013-09-26 12:28:00,
2013-09-26 08:33:00,46.3,46.3,30.10,South,191,0.0,1.0,100,0.00,,BKN001,0.00,VWS V14.01,2013-09-26 12:33:00,
2013-09-26 08:38:00,46.5,46.5,30.10,South,188,0.0,1.0,100,0.00,,BKN001,0.00,VWS V14.01,2013-09-26 12:38:00,
2013-09-26 08:43:00,46.7,46.7,30.10,SSE,168,0.0,1.0,100,0.00,,BKN001,0.00,VWS V14.01,2013-09-26 12:43:00,
2013-09-26 08:48:00,46.9,46.9,30.10,South,171,0.0,1.0,100,0.00,,BKN001,0.00,VWS V14.01,2013-09-26 12:48:00,
2013-09-26 08:53:00,47.2,47.2,30.10,SSE,157,0.0,1.0,100,0.00,,BKN001,0.00,VWS V14.01,2013-09-26 12:53:00,
2013-09-26 08:58:00,47.3,47.3,30.10,SSE,153,0.0,1.0,100,0.00,,BKN001,0.00,VWS V14.01,2013-09-26 12:58:00,
2013-09-26 09:03:00,47.6,47.6,30.10,SSE,149,0.0,0.0,100,0.00,,BKN001,0.00,VWS V14.01,2013-09-26 13:03:00,
2013-09-26 09:08:00,47.8,47.8,30.10,SSE,161,1.0,2.0,100,0.00,,BKN001,0.00,VWS V14.01,2013-09-26 13:08:00,
2013-09-26 09:13:00,47.9,47.9,30.11,SSE,159,0.0,2.0,100,0.00,,BKN001,0.00,VWS V14.01,2013-09-26 13:13:00,
2013-09-26 09:18:00,48.1,48.1,30.11,SSE,162,0.0,2.0,100,0.00,,BKN001,0.00,VWS V14.01,2013-09-26 13:18:00,
2013-09-26 09:23:00,48.4,48.4,30.10,SSE,165,0.0,2.0,100,0.00,,BKN001,0.00,VWS V14.01,2013-09-26 13:23:00,
2013-09-26 09:28:00,48.8,48.8,30.10,SSE,160,0.0,2.0,100,0.00,,BKN001,0.08,VWS V14.01,2013-09-26 13:28:00,
2013-09-26 09:33:00,49.3,49.3,30.10,SSE,164,0.0,1.0,100,0.00,,SCT001,0.00,VWS V14.01,2013-09-26 13:33:00,
2013-09-26 09:38:00,50.0,50.0,30.11,SSE,155,0.0,1.0,100,0.00,,SCT001,0.00,VWS V14.01,2013-09-26 13:38:00,
2013-09-26 09:43:00,50.7,50.7,30.11,SSE,164,0.0,1.0,100,0.00,,SCT001,0.00,VWS V14.01,2013-09-26 13:43:00,
2013-09-26 09:48:00,51.6,51.6,30.11,South,191,0.0,1.0,100,0.00,,SCT001,0.00,VWS V14.01,2013-09-26 13:48:00,
2013-09-26 09:53:00,52.4,52.4,30.11,South,191,1.0,1.0,100,0.00,,SCT001,0.00,VWS V14.01,2013-09-26 13:53:00,
2013-09-26 09:58:00,53.1,53.1,30.11,South,191,0.0,2.0,100,0.00,,SCT001,0.00,VWS V14.01,2013-09-26 13:58:00,
2013-09-26 10:03:00,53.9,53.9,30.10,South,191,1.0,1.0,100,0.00,,CLR,0.00,VWS V14.01,2013-09-26 14:03:00,
2013-09-26 10:08:00,54.5,54.5,30.10,South,191,0.0,2.0,100,0.00,,CLR,0.00,VWS V14.01,2013-09-26 14:08:00,
2013-09-26 10:13:00,55.5,55.5,30.10,South,191,0.0,2.0,100,0.00,,CLR,0.08,VWS V14.01,2013-09-26 14:13:00,
2013-09-26 10:18:00,56.2,56.2,30.10,South,191,0.0,2.0,100,0.00,,CLR,0.00,VWS V14.01,2013-09-26 14:18:00,
2013-09-26 10:23:00,57.1,57.1,30.10,South,191,0.0,2.0,100,0.00,,CLR,0.00,VWS V14.01,2013-09-26 14:23:00,
2013-09-26 10:28:00,57.8,57.8,30.10,South,191,0.0,2.0,100,0.00,,CLR,0.00,VWS V14.01,2013-09-26 14:28:00,
2013-09-26 10:33:00,58.6,58.6,30.10,South,191,1.0,4.0,100,0.00,,CLR,0.00,VWS V14.01,2013-09-26 14:33:00,
2013-09-26 10:38:00,59.3,59.3,30.10,South,191,3.0,4.0,100,0.00,,CLR,0.00,VWS V14.01,2013-09-26 14:38:00,
2013-09-26 10:44:00,60.0,60.0,30.10,South,191,1.0,4.0,100,0.00,,CLR,0.00,VWS V14.01,2013-09-26 14:44:00,
2013-09-26 10:49:00,60.7,60.4,30.10,South,191,2.0,5.0,99,0.00,,CLR,0.00,VWS V14.01,2013-09-26 14:49:00,
2013-09-26 10:54:00,61.5,60.6,30.10,South,191,1.0,5.0,97,0.00,,CLR,0.00,VWS V14.01,2013-09-26 14:54:00,
2013-09-26 10:59:00,61.8,59.2,30.10,South,191,0.0,5.0,91,0.00,,CLR,0.00,VWS V14.01,2013-09-26 14:59:00,
2013-09-26 11:04:00,62.8,58.9,30.10,South,187,0.0,1.0,87,0.00,,CLR,0.00,VWS V14.01,2013-09-26 15:04:00,
2013-09-26 11:09:00,63.8,58.9,30.10,South,191,2.0,3.0,84,0.00,,CLR,0.00,VWS V14.01,2013-09-26 15:09:00,
2013-09-26 11:14:00,65.0,59.0,30.10,South,191,1.0,4.0,81,0.00,,CLR,0.00,VWS V14.01,2013-09-26 15:14:00,
2013-09-26 11:19:00,65.8,58.8,30.10,South,190,0.0,4.0,78,0.00,,CLR,0.00,VWS V14.01,2013-09-26 15:19:00,
2013-09-26 11:24:00,66.6,58.8,30.10,South,190,1.0,4.0,76,0.00,,CLR,0.00,VWS V14.01,2013-09-26 15:24:00,
2013-09-26 11:29:00,67.5,59.3,30.10,South,191,0.0,4.0,75,0.00,,CLR,0.00,VWS V14.01,2013-09-26 15:29:00,
2013-09-26 11:34:00,68.2,59.2,30.09,South,191,0.0,4.0,73,0.00,,CLR,0.00,VWS V14.01,2013-09-26 15:34:00,
2013-09-26 11:39:00,69.0,59.6,30.10,South,191,3.0,5.0,72,0.00,,CLR,0.00,VWS V14.01,2013-09-26 15:39:00,
2013-09-26 11:44:00,69.7,59.9,30.10,South,191,1.0,5.0,71,0.00,,CLR,0.00,VWS V14.01,2013-09-26 15:44:00,
2013-09-26 11:49:00,70.5,59.8,30.10,South,191,2.0,5.0,69,0.00,,CLR,0.00,VWS V14.01,2013-09-26 15:49:00,
2013-09-26 11:54:00,71.2,59.3,30.09,South,191,1.0,5.0,66,0.00,,CLR,0.08,VWS V14.01,2013-09-26 15:54:00,
2013-09-26 11:59:00,71.7,60.2,30.09,South,191,1.0,5.0,67,0.00,,CLR,0.00,VWS V14.01,2013-09-26 15:59:00,
2013-09-26 12:04:00,72.2,59.8,30.09,South,191,4.0,5.0,65,0.00,,CLR,0.00,VWS V14.01,2013-09-26 16:04:00,
2013-09-26 12:09:00,72.4,60.0,30.09,South,191,2.0,5.0,65,0.00,,CLR,0.00,VWS V14.01,2013-09-26 16:09:00,
2013-09-26 12:14:00,72.8,59.9,30.09,South,191,5.0,5.0,64,0.00,,CLR,0.00,VWS V14.01,2013-09-26 16:14:00,
2013-09-26 12:19:00,72.9,59.6,30.09,South,191,3.0,6.0,63,0.00,,CLR,0.00,VWS V14.01,2013-09-26 16:19:00,
2013-09-26 12:24:00,73.2,60.3,30.09,South,191,0.0,6.0,64,0.00,,CLR,0.00,VWS V14.01,2013-09-26 16:24:00,
2013-09-26 12:29:00,73.8,60.0,30.09,South,180,3.0,6.0,62,0.00,,CLR,0.00,VWS V14.01,2013-09-26 16:29:00,
2013-09-26 12:34:00,74.3,60.5,30.09,South,176,3.0,4.0,62,0.00,,CLR,0.00,VWS V14.01,2013-09-26 16:34:00,
2013-09-26 12:39:00,74.8,60.5,30.08,South,176,2.0,5.0,61,0.00,,CLR,0.00,VWS V14.01,2013-09-26 16:39:00,
2013-09-26 12:44:00,75.4,61.0,30.08,South,176,0.0,5.0,61,0.00,,CLR,0.00,VWS V14.01,2013-09-26 16:44:00,
2013-09-26 12:49:00,76.0,60.2,30.08,South,176,1.0,5.0,58,0.00,,CLR,0.00,VWS V14.01,2013-09-26 16:49:00,
2013-09-26 12:54:00,76.5,60.2,30.08,South,176,2.0,5.0,57,0.00,,CLR,0.00,VWS V14.01,2013-09-26 16:54:00,
2013-09-26 12:59:00,76.9,59.5,30.08,South,176,1.0,5.0,55,0.00,,CLR,0.00,VWS V14.01,2013-09-26 16:59:00,
2013-09-26 13:04:00,77.3,59.4,30.08,South,176,2.0,4.0,54,0.00,,CLR,0.00,VWS V14.01,2013-09-26 17:04:00,
2013-09-26 13:09:00,77.6,58.6,30.08,South,176,3.0,6.0,52,0.00,,CLR,0.00,VWS V14.01,2013-09-26 17:09:00,
2013-09-26 13:14:00,77.8,58.8,30.08,South,176,1.0,6.0,52,0.00,,CLR,0.00,VWS V14.01,2013-09-26 17:14:00,
2013-09-26 13:19:00,77.2,58.2,30.08,WSW,238,4.0,6.0,52,0.00,,CLR,0.00,VWS V14.01,2013-09-26 17:19:00,
2013-09-26 13:24:00,76.7,58.8,30.07,SW,216,6.0,6.0,54,0.00,,CLR,0.00,VWS V14.01,2013-09-26 17:24:00,
2013-09-26 13:29:00,77.0,58.6,30.07,SW,216,4.0,6.0,53,0.00,,CLR,0.00,VWS V14.01,2013-09-26 17:29:00,
2013-09-26 13:34:00,77.4,59.0,30.07,South,177,2.0,6.0,53,0.00,,CLR,0.00,VWS V14.01,2013-09-26 17:34:00,
2013-09-26 13:39:00,77.9,58.9,30.07,South,177,4.0,6.0,52,0.00,,CLR,0.00,VWS V14.01,2013-09-26 17:39:00,
2013-09-26 13:44:00,78.2,58.6,30.07,South,188,0.0,7.0,51,0.00,,CLR,0.00,VWS V14.01,2013-09-26 17:44:00,
2013-09-26 13:49:00,78.4,59.3,30.07,South,187,0.0,7.0,52,0.00,,CLR,0.00,VWS V14.01,2013-09-26 17:49:00,
2013-09-26 13:54:00,78.8,59.2,30.07,South,186,4.0,7.0,51,0.00,,CLR,0.08,VWS V14.01,2013-09-26 17:54:00,
2013-09-26 13:59:00,78.9,59.2,30.07,SSE,148,3.0,8.0,51,0.00,,CLR,0.00,VWS V14.01,2013-09-26 17:59:00,
2013-09-26 14:04:00,79.1,58.3,30.06,SW,229,4.0,6.0,49,0.00,,CLR,0.00,VWS V14.01,2013-09-26 18:04:00,
2013-09-26 14:10:00,79.0,59.3,30.06,SW,230,2.0,6.0,51,0.00,,CLR,0.00,VWS V14.01,2013-09-26 18:10:00,
2013-09-26 14:15:00,79.5,59.8,30.06,SSE,164,4.0,6.0,51,0.00,,CLR,0.00,VWS V14.01,2013-09-26 18:15:00,
2013-09-26 14:20:00,79.9,59.6,30.06,SSE,164,0.0,6.0,50,0.00,,CLR,0.00,VWS V14.01,2013-09-26 18:20:00,
2013-09-26 14:25:00,80.1,59.2,30.06,SSE,164,4.0,6.0,49,0.00,,CLR,0.00,VWS V14.01,2013-09-26 18:25:00,
2013-09-26 14:30:00,80.2,59.9,30.06,SSE,164,1.0,6.0,50,0.00,,CLR,0.00,VWS V14.01,2013-09-26 18:30:00,
2013-09-26 14:35:00,80.5,59.6,30.06,SSE,164,0.0,5.0,49,0.00,,CLR,0.00,VWS V14.01,2013-09-26 18:35:00,
2013-09-26 14:40:00,80.7,59.2,30.06,SSE,164,1.0,6.0,48,0.00,,CLR,0.00,VWS V14.01,2013-09-26 18:40:00,
2013-09-26 14:45:00,80.7,59.8,30.06,South,186,4.0,7.0,49,0.00,,CLR,0.00,VWS V14.01,2013-09-26 18:45:00,
2013-09-26 14:50:00,80.7,59.2,30.05,South,182,0.0,7.0,48,0.00,,CLR,0.08,VWS V14.01,2013-09-26 18:50:00,
2013-09-26 14:55:00,80.9,59.4,30.05,South,190,4.0,7.0,48,0.00,,CLR,0.00,VWS V14.01,2013-09-26 18:55:00,
2013-09-26 15:00:00,81.0,59.5,30.05,South,175,2.0,3.0,48,0.00,,CLR,0.00,VWS V14.01,2013-09-26 19:00:00,
2013-09-26 15:05:00,81.3,59.2,30.05,SE,132,0.0,4.0,47,0.00,,CLR,0.00,VWS V14.01,2013-09-26 19:05:00,
2013-09-26 15:10:00,81.5,58.8,30.05,SE,138,0.0,5.0,46,0.00,,CLR,0.00,VWS V14.01,2013-09-26 19:10:00,
2013-09-26 15:15:00,81.9,60.3,30.05,South,175,4.0,5.0,48,0.00,,CLR,0.00,VWS V14.01,2013-09-26 19:15:00,
2013-09-26 15:20:00,82.1,59.9,30.05,South,178,0.0,6.0,47,0.00,,CLR,0.00,VWS V14.01,2013-09-26 19:20:00,
2013-09-26 15:25:00,82.4,59.6,30.05,SSW,209,0.0,6.0,46,0.00,,CLR,0.00,VWS V14.01,2013-09-26 19:25:00,
2013-09-26 15:30:00,82.5,58.4,30.05,ESE,116,0.0,1.0,44,0.00,,CLR,0.00,VWS V14.01,2013-09-26 19:30:00,
2013-09-26 15:35:00,82.5,59.0,30.05,South,176,4.0,4.0,45,0.00,,CLR,0.00,VWS V14.01,2013-09-26 19:35:00,
2013-09-26 15:40:00,81.7,57.7,30.05,North,10,1.0,7.0,44,0.00,,CLR,0.00,VWS V14.01,2013-09-26 19:40:00,
2013-09-26 15:45:00,80.8,58.1,30.05,North,10,0.0,7.0,46,0.00,,CLR,0.00,VWS V14.01,2013-09-26 19:45:00,
2013-09-26 15:50:00,80.6,58.5,30.05,NE,45,0.0,7.0,47,0.00,,CLR,0.00,VWS V14.01,2013-09-26 19:50:00,
2013-09-26 15:55:00,80.0,58.0,30.05,NE,45,2.0,7.0,47,0.00,,CLR,0.00,VWS V14.01,2013-09-26 19:55:00,
2013-09-26 16:00:00,79.8,57.8,30.05,ESE,107,3.0,7.0,47,0.00,,CLR,0.00,VWS V14.01,2013-09-26 20:00:00,
2013-09-26 16:05:00,79.7,57.7,30.05,ESE,117,3.0,7.0,47,0.00,,CLR,0.00,VWS V14.01,2013-09-26 20:05:00,
2013-09-26 16:10:00,79.4,58.0,30.05,East,85,0.0,7.0,48,0.00,,CLR,0.00,VWS V14.01,2013-09-26 20:10:00,
2013-09-26 16:15:00,79.2,58.4,30.05,East,93,3.0,7.0,49,0.00,,CLR,0.00,VWS V14.01,2013-09-26 20:15:00,
2013-09-26 16:20:00,78.8,58.6,30.05,NE,46,0.0,7.0,50,0.00,,CLR,0.00,VWS V14.01,2013-09-26 20:20:00,
2013-09-26 16:25:00,77.9,58.3,30.05,NE,45,0.0,7.0,51,0.00,,CLR,0.00,VWS V14.01,2013-09-26 20:25:00,
2013-09-26 16:31:00,77.0,58.0,30.06,North,8,1.0,3.0,52,0.00,,CLR,0.00,VWS V14.01,2013-09-26 20:31:00,
2013-09-26 16:36:00,76.2,58.4,30.06,North,8,0.0,3.0,54,0.00,,CLR,0.00,VWS V14.01,2013-09-26 20:36:00,
2013-09-26 16:41:00,75.8,58.0,30.06,North,8,2.0,3.0,54,0.00,,CLR,0.00,VWS V14.01,2013-09-26 20:41:00,
2013-09-26 16:46:00,75.2,57.9,30.06,NE,45,3.0,5.0,55,0.00,,CLR,0.00,VWS V14.01,2013-09-26 20:46:00,
2013-09-26 16:51:00,74.7,58.0,30.06,NE,45,1.0,5.0,56,0.00,,CLR,0.00,VWS V14.01,2013-09-26 20:51:00,
2013-09-26 16:56:00,74.3,58.1,30.06,NE,42,0.0,5.0,57,0.00,,CLR,0.00,VWS V14.01,2013-09-26 20:56:00,
2013-09-26 17:01:00,74.0,58.3,30.06,NE,43,4.0,4.0,58,0.00,,CLR,0.00,VWS V14.01,2013-09-26 21:01:00,
2013-09-26 17:06:00,73.7,58.5,30.06,NE,41,0.0,4.0,59,0.00,,CLR,0.00,VWS V14.01,2013-09-26 21:06:00,
2013-09-26 17:11:00,73.4,57.7,30.06,NE,41,0.0,4.0,58,0.00,,CLR,0.00,VWS V14.01,2013-09-26 21:11:00,
2013-09-26 17:16:00,73.3,58.1,30.06,NE,41,0.0,4.0,59,0.00,,CLR,0.00,VWS V14.01,2013-09-26 21:16:00,
2013-09-26 17:21:00,73.4,58.7,30.07,NE,41,0.0,4.0,60,0.00,,CLR,0.00,VWS V14.01,2013-09-26 21:21:00,
2013-09-26 17:26:00,73.5,57.8,30.07,NE,41,0.0,4.0,58,0.00,,CLR,0.00,VWS V14.01,2013-09-26 21:26:00,
2013-09-26 17:31:00,73.3,58.1,30.07,NE,45,3.0,5.0,59,0.00,,CLR,0.00,VWS V14.01,2013-09-26 21:31:00,
2013-09-26 17:36:00,73.1,57.9,30.07,NE,50,4.0,6.0,59,0.00,,CLR,0.00,VWS V14.01,2013-09-26 21:36:00,
2013-09-26 17:41:00,72.7,58.0,30.07,NE,34,5.0,6.0,60,0.00,,CLR,0.00,VWS V14.01,2013-09-26 21:41:00,
2013-09-26 17:46:00,72.3,57.7,30.08,NE,42,4.0,6.0,60,0.00,,CLR,0.00,VWS V14.01,2013-09-26 21:46:00,
2013-09-26 17:51:00,71.9,57.7,30.08,NE,48,3.0,6.0,61,0.00,,CLR,0.00,VWS V14.01,2013-09-26 21:51:00,
2013-09-26 17:56:00,71.7,57.5,30.08,NE,43,1.0,7.0,61,0.00,,CLR,0.00,VWS V14.01,2013-09-26 21:56:00,
2013-09-26 18:01:00,71.4,57.3,30.08,NE,46,1.0,2.0,61,0.00,,CLR,0.00,VWS V14.01,2013-09-26 22:01:00,
2013-09-26 18:06:00,71.1,57.4,30.08,NE,49,0.0,7.0,62,0.00,,CLR,0.00,VWS V14.01,2013-09-26 22:06:00,
2013-09-26 18:11:00,70.9,57.2,30.08,East,83,0.0,7.0,62,0.00,,CLR,0.00,VWS V14.01,2013-09-26 22:11:00,
2013-09-26 18:16:00,70.6,57.0,30.08,NNE,20,1.0,7.0,62,0.00,,CLR,0.00,VWS V14.01,2013-09-26 22:16:00,
2013-09-26 18:21:00,70.4,56.8,30.08,NE,45,0.0,7.0,62,0.00,,CLR,0.00,VWS V14.01,2013-09-26 22:21:00,
2013-09-26 18:26:00,70.3,56.7,30.08,NE,45,2.0,7.0,62,0.00,,CLR,0.00,VWS V14.01,2013-09-26 22:26:00,
2013-09-26 18:31:00,70.1,56.5,30.08,NE,45,0.0,0.0,62,0.00,,CLR,0.00,VWS V14.01,2013-09-26 22:31:00,
2013-09-26 18:36:00,69.9,56.8,30.09,NE,45,0.0,0.0,63,0.00,,CLR,0.00,VWS V14.01,2013-09-26 22:36:00,
2013-09-26 18:41:00,69.6,56.5,30.09,NE,45,0.0,0.0,63,0.00,,CLR,0.00,VWS V14.01,2013-09-26 22:41:00,
2013-09-26 18:46:00,69.4,58.0,30.09,NE,45,0.0,0.0,67,0.00,,CLR,0.00,VWS V14.01,2013-09-26 22:46:00,
2013-09-26 18:52:00,69.1,58.1,30.09,NE,45,0.0,0.0,68,0.00,,CLR,0.00,VWS V14.01,2013-09-26 22:52:00,
2013-09-26 18:57:00,68.8,58.2,30.09,NE,45,0.0,0.0,69,0.00,,CLR,0.00,VWS V14.01,2013-09-26 22:57:00,
2013-09-26 19:02:00,68.5,57.9,30.09,NE,45,0.0,2.0,69,0.00,,SCT060,0.00,VWS V14.01,2013-09-26 23:02:00,
2013-09-26 19:07:00,68.2,57.7,30.09,NE,45,0.0,2.0,69,0.00,,SCT060,0.00,VWS V14.01,2013-09-26 23:07:00,
2013-09-26 19:12:00,67.9,57.0,30.09,NE,50,4.0,4.0,68,0.00,,SCT060,0.00,VWS V14.01,2013-09-26 23:12:00,
2013-09-26 19:17:00,67.9,57.0,30.09,NE,52,0.0,4.0,68,0.00,,SCT060,0.00,VWS V14.01,2013-09-26 23:17:00,
2013-09-26 19:22:00,67.7,56.8,30.10,NE,52,0.0,4.0,68,0.00,,SCT060,0.00,VWS V14.01,2013-09-26 23:22:00,
2013-09-26 19:27:00,67.6,56.7,30.10,NE,50,1.0,5.0,68,0.00,,SCT060,0.00,VWS V14.01,2013-09-26 23:27:00,
2013-09-26 19:32:00,67.6,56.7,30.10,NE,50,0.0,0.0,68,0.00,,SCT060,0.00,VWS V14.01,2013-09-26 23:32:00,
2013-09-26 19:37:00,67.4,56.9,30.10,NE,50,0.0,1.0,69,0.00,,SCT060,0.00,VWS V14.01,2013-09-26 23:37:00,
2013-09-26 19:42:00,67.3,57.2,30.10,NE,50,0.0,1.0,70,0.00,,SCT060,0.00,VWS V14.01,2013-09-26 23:42:00,
2013-09-26 19:47:00,67.0,57.3,30.10,NE,50,0.0,1.0,71,0.00,,SCT060,0.00,VWS V14.01,2013-09-26 23:47:00,
2013-09-26 19:52:00,66.7,57.4,30.10,NE,50,0.0,1.0,72,0.00,,SCT060,0.00,VWS V14.01,2013-09-26 23:52:00,
2013-09-26 19:57:00,66.4,57.5,30.10,NE,50,0.0,1.0,73,0.00,,SCT060,0.00,VWS V14.01,2013-09-26 23:57:00,
2013-09-26 20:02:00,66.1,57.2,30.11,NE,50,0.0,0.0,73,0.00,,OVC070,0.00,VWS V14.01,2013-09-27 00:02:00,
2013-09-26 20:07:00,65.8,57.3,30.11,NE,50,0.0,0.0,74,0.00,,OVC070,0.00,VWS V14.01,2013-09-27 00:07:00,
2013-09-26 20:12:00,65.5,57.0,30.11,NE,50,0.0,0.0,74,0.00,,OVC070,0.00,VWS V14.01,2013-09-27 00:12:00,
2013-09-26 20:17:00,65.3,57.5,30.11,NE,50,0.0,0.0,76,0.00,,OVC070,0.00,VWS V14.01,2013-09-27 00:17:00,
2013-09-26 20:22:00,65.0,57.3,30.12,NE,50,0.0,0.0,76,0.00,,OVC070,0.00,VWS V14.01,2013-09-27 00:22:00,
2013-09-26 20:27:00,64.8,57.1,30.12,NE,50,0.0,0.0,76,0.00,,OVC070,0.00,VWS V14.01,2013-09-27 00:27:00,
2013-09-26 20:32:00,64.6,57.2,30.12,NE,50,0.0,0.0,77,0.00,,OVC070,0.00,VWS V14.01,2013-09-27 00:32:00,
2013-09-26 20:37:00,64.3,57.3,30.12,NE,50,0.0,0.0,78,0.00,,OVC070,0.00,VWS V14.01,2013-09-27 00:37:00,
2013-09-26 20:42:00,64.1,57.1,30.12,NE,50,0.0,0.0,78,0.00,,OVC070,0.00,VWS V14.01,2013-09-27 00:42:00,
2013-09-26 20:47:00,63.9,57.3,30.12,NE,50,0.0,0.0,79,0.00,,OVC070,0.00,VWS V14.01,2013-09-27 00:47:00,
2013-09-26 20:52:00,63.7,57.1,30.12,NE,50,0.0,0.0,79,0.00,,OVC070,0.00,VWS V14.01,2013-09-27 00:52:00,
2013-09-26 20:57:00,63.4,57.1,30.12,NE,50,0.0,0.0,80,0.00,,OVC070,0.00,VWS V14.01,2013-09-27 00:57:00,
2013-09-26 21:02:00,63.2,56.9,30.12,NE,50,0.0,0.0,80,0.00,,OVC065,0.00,VWS V14.01,2013-09-27 01:02:00,
2013-09-26 21:07:00,62.9,56.6,30.12,NE,50,0.0,0.0,80,0.00,,OVC065,0.00,VWS V14.01,2013-09-27 01:07:00,
2013-09-26 21:12:00,62.6,56.7,30.12,NE,50,0.0,0.0,81,0.00,,OVC065,0.00,VWS V14.01,2013-09-27 01:12:00,
2013-09-26 21:17:00,62.3,56.4,30.12,NE,50,0.0,0.0,81,0.00,,OVC065,0.00,VWS V14.01,2013-09-27 01:17:00,
2013-09-26 21:22:00,62.1,56.2,30.13,NE,50,0.0,0.0,81,0.00,,OVC065,0.00,VWS V14.01,2013-09-27 01:22:00,
2013-09-26 21:27:00,61.8,55.9,30.13,NE,50,0.0,0.0,81,0.00,,OVC065,0.00,VWS V14.01,2013-09-27 01:27:00,
2013-09-26 21:32:00,61.5,55.6,30.13,NE,50,0.0,0.0,81,0.00,,OVC065,0.00,VWS V14.01,2013-09-27 01:32:00,
2013-09-26 21:37:00,61.3,55.8,30.13,NE,50,0.0,0.0,82,0.00,,OVC065,0.00,VWS V14.01,2013-09-27 01:37:00,
2013-09-26 21:42:00,61.1,55.9,30.13,NE,50,0.0,0.0,83,0.00,,OVC065,0.00,VWS V14.01,2013-09-27 01:42:00,
2013-09-26 21:47:00,60.9,55.7,30.13,NE,50,0.0,0.0,83,0.00,,OVC065,0.00,VWS V14.01,2013-09-27 01:47:00,
2013-09-26 21:52:00,60.7,55.5,30.14,NE,50,0.0,0.0,83,0.00,,OVC065,0.00,VWS V14.01,2013-09-27 01:52:00,
2013-09-26 21:57:00,60.5,55.3,30.14,NE,50,0.0,0.0,83,0.00,,OVC065,0.00,VWS V14.01,2013-09-27 01:57:00,
2013-09-26 22:02:00,60.4,55.5,30.14,NE,50,0.0,0.0,84,0.00,,OVC065,0.00,VWS V14.01,2013-09-27 02:02:00,
2013-09-26 22:07:00,60.2,55.3,30.14,NE,50,0.0,0.0,84,0.00,,OVC065,0.00,VWS V14.01,2013-09-27 02:07:00,
2013-09-26 22:12:00,60.1,55.3,30.14,NE,50,0.0,0.0,84,0.00,,OVC065,0.00,VWS V14.01,2013-09-27 02:12:00,
2013-09-26 22:17:00,60.1,55.6,30.14,NE,50,0.0,0.0,85,0.00,,OVC065,0.00,VWS V14.01,2013-09-27 02:17:00,
2013-09-26 22:23:00,60.0,55.8,30.14,NE,50,0.0,0.0,86,0.00,,OVC065,0.00,VWS V14.01,2013-09-27 02:23:00,
2013-09-26 22:28:00,59.9,55.4,30.14,NE,50,0.0,0.0,85,0.00,,OVC065,0.00,VWS V14.01,2013-09-27 02:28:00,
2013-09-26 22:33:00,59.8,55.3,30.14,NE,50,0.0,0.0,85,0.00,,OVC065,0.00,VWS V14.01,2013-09-27 02:33:00,
2013-09-26 22:38:00,59.7,55.5,30.14,NE,50,0.0,0.0,86,0.00,,OVC065,0.00,VWS V14.01,2013-09-27 02:38:00,
2013-09-26 22:43:00,59.6,55.4,30.14,NE,50,0.0,0.0,86,0.00,,OVC065,0.00,VWS V14.01,2013-09-27 02:43:00,
2013-09-26 22:48:00,59.5,55.3,30.14,NE,50,0.0,0.0,86,0.00,,OVC065,0.00,VWS V14.01,2013-09-27 02:48:00,
2013-09-26 22:53:00,59.4,55.2,30.14,NE,50,0.0,0.0,86,0.00,,OVC065,0.00,VWS V14.01,2013-09-27 02:53:00,
2013-09-26 22:58:00,59.3,55.1,30.14,NE,50,0.0,0.0,86,0.00,,OVC065,0.00,VWS V14.01,2013-09-27 02:58:00,
2013-09-26 23:03:00,59.1,54.9,30.14,NE,50,0.0,0.0,86,0.00,,OVC065,0.00,VWS V14.01,2013-09-27 03:03:00,
2013-09-26 23:08:00,59.0,54.8,30.14,NE,50,0.0,0.0,86,0.00,,OVC065,0.00,VWS V14.01,2013-09-27 03:08:00,
2013-09-26 23:13:00,58.8,55.0,30.14,NE,50,0.0,0.0,87,0.00,,OVC065,0.00,VWS V14.01,2013-09-27 03:13:00,
2013-09-26 23:18:00,58.7,54.8,30.14,NE,50,0.0,0.0,87,0.00,,OVC065,0.00,VWS V14.01,2013-09-27 03:18:00,
2013-09-26 23:23:00,58.6,54.8,30.15,NE,50,0.0,0.0,87,0.00,,OVC065,0.00,VWS V14.01,2013-09-27 03:23:00,
2013-09-26 23:28:00,58.5,54.7,30.15,NE,50,0.0,0.0,87,0.00,,OVC065,0.00,VWS V14.01,2013-09-27 03:28:00,
2013-09-26 23:33:00,58.5,55.3,30.15,NE,50,0.0,0.0,89,0.00,,OVC065,0.00,VWS V14.01,2013-09-27 03:33:00,
2013-09-26 23:38:00,58.5,55.3,30.15,NE,50,0.0,0.0,89,0.00,,OVC065,0.00,VWS V14.01,2013-09-27 03:38:00,
2013-09-26 23:43:00,58.5,55.6,30.15,NE,50,0.0,0.0,90,0.00,,OVC065,0.00,VWS V14.01,2013-09-27 03:43:00,
2013-09-26 23:48:00,58.5,55.3,30.15,NE,50,0.0,0.0,89,0.00,,OVC065,0.00,VWS V14.01,2013-09-27 03:48:00,
2013-09-26 23:53:00,58.5,55.6,30.15,NE,50,0.0,0.0,90,0.00,,OVC065,0.00,VWS V14.01,2013-09-27 03:53:00,
2013-09-26 23:58:00,58.5,55.6,30.15,NE,50,0.0,0.0,90,0.00,,OVC065,0.00,VWS V14.01,2013-09-27 03:58:00,